sensor_id;sensor_type;location;lat;lon;timestamp;temperature;humidity
38325;DHT22;24126;52.672;13.622;2023-04-15T00:00:46;13.40;80.40
38325;DHT22;24126;52.672;13.622;2023-04-15T00:03:13;13.30;80.20
38325;DHT22;24126;52.672;13.622;2023-04-15T00:05:40;13.30;80.30
38325;DHT22;24126;52.672;13.622;2023-04-15T00:08:08;13.30;80.30
38325;DHT22;24126;52.672;13.622;2023-04-15T00:10:35;13.30;80.30
38325;DHT22;24126;52.672;13.622;2023-04-15T00:13:02;13.30;80.30
38325;DHT22;24126;52.672;13.622;2023-04-15T00:15:29;13.30;80.30
38325;DHT22;24126;52.672;13.622;2023-04-15T00:17:56;13.30;80.20
38325;DHT22;24126;52.672;13.622;2023-04-15T00:20:23;13.30;80.20
38325;DHT22;24126;52.672;13.622;2023-04-15T00:22:51;13.30;80.10
38325;DHT22;24126;52.672;13.622;2023-04-15T00:25:18;13.30;80.00
38325;DHT22;24126;52.672;13.622;2023-04-15T00:27:45;13.30;80.10
38325;DHT22;24126;52.672;13.622;2023-04-15T00:30:14;13.30;80.10
38325;DHT22;24126;52.672;13.622;2023-04-15T00:32:42;13.30;80.10
38325;DHT22;24126;52.672;13.622;2023-04-15T00:35:09;13.30;80.00
38325;DHT22;24126;52.672;13.622;2023-04-15T00:37:36;13.30;80.00
38325;DHT22;24126;52.672;13.622;2023-04-15T00:40:03;13.30;80.20
38325;DHT22;24126;52.672;13.622;2023-04-15T00:42:33;13.30;80.20
38325;DHT22;24126;52.672;13.622;2023-04-15T00:45:00;13.20;80.10
38325;DHT22;24126;52.672;13.622;2023-04-15T00:47:28;13.30;80.00
38325;DHT22;24126;52.672;13.622;2023-04-15T00:49:55;13.30;80.00
38325;DHT22;24126;52.672;13.622;2023-04-15T00:52:22;13.30;80.20
38325;DHT22;24126;52.672;13.622;2023-04-15T00:54:50;13.30;80.20
38325;DHT22;24126;52.672;13.622;2023-04-15T00:57:18;13.30;80.20
38325;DHT22;24126;52.672;13.622;2023-04-15T00:59:45;13.30;80.20
38325;DHT22;24126;52.672;13.622;2023-04-15T01:02:12;13.30;80.90
38325;DHT22;24126;52.672;13.622;2023-04-15T01:04:39;13.30;80.20
38325;DHT22;24126;52.672;13.622;2023-04-15T01:07:06;13.30;80.20
38325;DHT22;24126;52.672;13.622;2023-04-15T01:09:34;13.20;80.10
38325;DHT22;24126;52.672;13.622;2023-04-15T01:12:01;13.20;80.10
38325;DHT22;24126;52.672;13.622;2023-04-15T01:14:29;13.20;80.20
38325;DHT22;24126;52.672;13.622;2023-04-15T01:16:56;13.20;80.10
38325;DHT22;24126;52.672;13.622;2023-04-15T01:19:23;13.20;80.00
38325;DHT22;24126;52.672;13.622;2023-04-15T01:21:51;13.20;80.10
38325;DHT22;24126;52.672;13.622;2023-04-15T01:24:18;13.20;80.20
38325;DHT22;24126;52.672;13.622;2023-04-15T01:26:46;13.20;80.10
38325;DHT22;24126;52.672;13.622;2023-04-15T01:29:14;13.20;80.30
38325;DHT22;24126;52.672;13.622;2023-04-15T01:31:50;13.20;80.20
38325;DHT22;24126;52.672;13.622;2023-04-15T01:34:36;13.20;80.30
38325;DHT22;24126;52.672;13.622;2023-04-15T01:37:22;13.20;80.30
38325;DHT22;24126;52.672;13.622;2023-04-15T01:39:50;13.20;80.40
38325;DHT22;24126;52.672;13.622;2023-04-15T01:42:17;13.20;80.40
38325;DHT22;24126;52.672;13.622;2023-04-15T01:44:45;13.20;80.40
38325;DHT22;24126;52.672;13.622;2023-04-15T01:47:13;13.20;80.30
38325;DHT22;24126;52.672;13.622;2023-04-15T01:49:42;13.20;80.40
38325;DHT22;24126;52.672;13.622;2023-04-15T01:52:10;13.20;80.40
38325;DHT22;24126;52.672;13.622;2023-04-15T01:54:40;13.20;80.40
38325;DHT22;24126;52.672;13.622;2023-04-15T01:57:09;13.20;80.40
38325;DHT22;24126;52.672;13.622;2023-04-15T01:59:37;13.20;80.50
38325;DHT22;24126;52.672;13.622;2023-04-15T02:02:06;13.20;80.50
38325;DHT22;24126;52.672;13.622;2023-04-15T02:04:34;13.20;80.50
38325;DHT22;24126;52.672;13.622;2023-04-15T02:07:02;13.20;80.50
38325;DHT22;24126;52.672;13.622;2023-04-15T02:09:31;13.20;80.50
38325;DHT22;24126;52.672;13.622;2023-04-15T02:11:59;13.20;80.40
38325;DHT22;24126;52.672;13.622;2023-04-15T02:14:29;13.20;80.50
38325;DHT22;24126;52.672;13.622;2023-04-15T02:16:57;13.20;80.60
38325;DHT22;24126;52.672;13.622;2023-04-15T02:19:33;13.20;80.50
38325;DHT22;24126;52.672;13.622;2023-04-15T02:22:03;13.20;80.40
38325;DHT22;24126;52.672;13.622;2023-04-15T02:24:33;13.20;80.40
38325;DHT22;24126;52.672;13.622;2023-04-15T02:27:03;13.20;80.40
38325;DHT22;24126;52.672;13.622;2023-04-15T02:29:32;13.30;80.50
38325;DHT22;24126;52.672;13.622;2023-04-15T02:32:01;13.30;80.40
38325;DHT22;24126;52.672;13.622;2023-04-15T02:34:29;13.30;80.50
38325;DHT22;24126;52.672;13.622;2023-04-15T02:36:59;13.30;80.30
38325;DHT22;24126;52.672;13.622;2023-04-15T02:39:30;13.30;80.70
38325;DHT22;24126;52.672;13.622;2023-04-15T02:41:59;13.30;80.40
38325;DHT22;24126;52.672;13.622;2023-04-15T02:44:27;13.30;80.50
38325;DHT22;24126;52.672;13.622;2023-04-15T02:46:59;13.30;80.60
38325;DHT22;24126;52.672;13.622;2023-04-15T02:49:27;13.30;80.60
38325;DHT22;24126;52.672;13.622;2023-04-15T02:51:57;13.30;80.60
38325;DHT22;24126;52.672;13.622;2023-04-15T02:54:26;13.30;80.60
38325;DHT22;24126;52.672;13.622;2023-04-15T02:56:55;13.30;80.60
38325;DHT22;24126;52.672;13.622;2023-04-15T02:59:24;13.30;80.60
38325;DHT22;24126;52.672;13.622;2023-04-15T03:01:52;13.30;80.50
38325;DHT22;24126;52.672;13.622;2023-04-15T03:04:22;13.30;80.60
38325;DHT22;24126;52.672;13.622;2023-04-15T03:06:51;13.30;80.50
38325;DHT22;24126;52.672;13.622;2023-04-15T03:09:19;13.30;80.50
38325;DHT22;24126;52.672;13.622;2023-04-15T03:11:47;13.40;80.60
38325;DHT22;24126;52.672;13.622;2023-04-15T03:14:17;13.40;81.20
38325;DHT22;24126;52.672;13.622;2023-04-15T03:16:48;13.40;80.40
38325;DHT22;24126;52.672;13.622;2023-04-15T03:19:17;13.40;80.40
38325;DHT22;24126;52.672;13.622;2023-04-15T03:21:45;13.40;80.30
38325;DHT22;24126;52.672;13.622;2023-04-15T03:24:14;13.40;80.40
38325;DHT22;24126;52.672;13.622;2023-04-15T03:26:42;13.40;80.50
38325;DHT22;24126;52.672;13.622;2023-04-15T03:29:17;13.40;80.50
38325;DHT22;24126;52.672;13.622;2023-04-15T03:31:45;13.40;80.40
38325;DHT22;24126;52.672;13.622;2023-04-15T03:34:14;13.40;80.50
38325;DHT22;24126;52.672;13.622;2023-04-15T03:36:42;13.40;80.30
38325;DHT22;24126;52.672;13.622;2023-04-15T03:39:11;13.50;80.50
38325;DHT22;24126;52.672;13.622;2023-04-15T03:41:40;13.40;80.40
38325;DHT22;24126;52.672;13.622;2023-04-15T03:44:08;13.50;80.60
38325;DHT22;24126;52.672;13.622;2023-04-15T03:46:36;13.50;80.60
38325;DHT22;24126;52.672;13.622;2023-04-15T03:49:08;13.50;80.70
38325;DHT22;24126;52.672;13.622;2023-04-15T03:51:36;13.50;80.60
38325;DHT22;24126;52.672;13.622;2023-04-15T03:54:05;13.50;80.60
38325;DHT22;24126;52.672;13.622;2023-04-15T03:56:33;13.50;80.60
38325;DHT22;24126;52.672;13.622;2023-04-15T03:59:01;13.50;80.70
38325;DHT22;24126;52.672;13.622;2023-04-15T04:01:30;13.50;80.60
38325;DHT22;24126;52.672;13.622;2023-04-15T04:03:58;13.50;80.70
38325;DHT22;24126;52.672;13.622;2023-04-15T04:06:27;13.50;80.60
38325;DHT22;24126;52.672;13.622;2023-04-15T04:08:55;13.50;80.70
38325;DHT22;24126;52.672;13.622;2023-04-15T04:11:23;13.50;80.60
38325;DHT22;24126;52.672;13.622;2023-04-15T04:13:52;13.50;80.90
38325;DHT22;24126;52.672;13.622;2023-04-15T04:16:20;13.50;80.90
38325;DHT22;24126;52.672;13.622;2023-04-15T04:18:48;13.50;80.80
38325;DHT22;24126;52.672;13.622;2023-04-15T04:21:17;13.50;80.90
38325;DHT22;24126;52.672;13.622;2023-04-15T04:23:45;13.50;80.70
38325;DHT22;24126;52.672;13.622;2023-04-15T04:26:13;13.60;80.80
38325;DHT22;24126;52.672;13.622;2023-04-15T04:28:42;13.50;80.90
38325;DHT22;24126;52.672;13.622;2023-04-15T04:31:10;13.60;80.90
38325;DHT22;24126;52.672;13.622;2023-04-15T04:33:38;13.60;80.70
38325;DHT22;24126;52.672;13.622;2023-04-15T04:36:07;13.60;80.50
38325;DHT22;24126;52.672;13.622;2023-04-15T04:38:35;13.60;80.60
38325;DHT22;24126;52.672;13.622;2023-04-15T04:41:03;13.60;80.70
38325;DHT22;24126;52.672;13.622;2023-04-15T04:43:32;13.60;80.80
38325;DHT22;24126;52.672;13.622;2023-04-15T04:46:00;13.60;80.80
38325;DHT22;24126;52.672;13.622;2023-04-15T04:48:28;13.60;80.70
38325;DHT22;24126;52.672;13.622;2023-04-15T04:50:57;13.60;80.70
38325;DHT22;24126;52.672;13.622;2023-04-15T04:53:26;13.60;80.70
38325;DHT22;24126;52.672;13.622;2023-04-15T04:55:54;13.70;80.90
38325;DHT22;24126;52.672;13.622;2023-04-15T04:58:22;13.70;80.70
38325;DHT22;24126;52.672;13.622;2023-04-15T05:00:50;13.70;80.70
38325;DHT22;24126;52.672;13.622;2023-04-15T05:03:19;13.70;80.70
38325;DHT22;24126;52.672;13.622;2023-04-15T05:05:48;13.70;80.60
38325;DHT22;24126;52.672;13.622;2023-04-15T05:08:17;13.80;80.70
38325;DHT22;24126;52.672;13.622;2023-04-15T05:10:45;13.80;80.50
38325;DHT22;24126;52.672;13.622;2023-04-15T05:13:14;13.80;80.50
38325;DHT22;24126;52.672;13.622;2023-04-15T05:15:42;13.80;80.50
38325;DHT22;24126;52.672;13.622;2023-04-15T05:18:11;13.80;80.50
38325;DHT22;24126;52.672;13.622;2023-04-15T05:20:39;13.80;80.60
38325;DHT22;24126;52.672;13.622;2023-04-15T05:23:08;13.80;80.60
38325;DHT22;24126;52.672;13.622;2023-04-15T05:25:36;13.90;80.50
38325;DHT22;24126;52.672;13.622;2023-04-15T05:28:04;13.90;80.60
38325;DHT22;24126;52.672;13.622;2023-04-15T05:30:33;13.90;80.30
38325;DHT22;24126;52.672;13.622;2023-04-15T05:33:01;13.90;80.50
38325;DHT22;24126;52.672;13.622;2023-04-15T05:35:29;13.90;80.60
38325;DHT22;24126;52.672;13.622;2023-04-15T05:37:58;13.90;80.50
38325;DHT22;24126;52.672;13.622;2023-04-15T05:40:26;14.00;80.50
38325;DHT22;24126;52.672;13.622;2023-04-15T05:42:55;14.00;80.50
38325;DHT22;24126;52.672;13.622;2023-04-15T05:45:23;14.10;80.40
38325;DHT22;24126;52.672;13.622;2023-04-15T05:47:51;14.10;80.30
38325;DHT22;24126;52.672;13.622;2023-04-15T05:50:20;14.10;80.10
38325;DHT22;24126;52.672;13.622;2023-04-15T05:52:48;14.10;80.30
38325;DHT22;24126;52.672;13.622;2023-04-15T05:55:17;14.10;80.30
38325;DHT22;24126;52.672;13.622;2023-04-15T05:57:45;14.20;80.20
38325;DHT22;24126;52.672;13.622;2023-04-15T06:00:13;14.20;80.10
38325;DHT22;24126;52.672;13.622;2023-04-15T06:02:42;14.20;80.00
38325;DHT22;24126;52.672;13.622;2023-04-15T06:05:10;14.20;80.00
38325;DHT22;24126;52.672;13.622;2023-04-15T06:07:39;14.30;80.00
38325;DHT22;24126;52.672;13.622;2023-04-15T06:10:09;14.30;80.10
38325;DHT22;24126;52.672;13.622;2023-04-15T06:12:38;14.30;79.90
38325;DHT22;24126;52.672;13.622;2023-04-15T06:15:06;14.40;80.10
38325;DHT22;24126;52.672;13.622;2023-04-15T06:17:36;14.40;79.80
38325;DHT22;24126;52.672;13.622;2023-04-15T06:20:04;14.40;79.80
38325;DHT22;24126;52.672;13.622;2023-04-15T06:22:35;14.50;79.60
38325;DHT22;24126;52.672;13.622;2023-04-15T06:25:04;14.60;79.30
38325;DHT22;24126;52.672;13.622;2023-04-15T06:27:34;14.60;79.20
38325;DHT22;24126;52.672;13.622;2023-04-15T06:30:02;14.60;79.00
38325;DHT22;24126;52.672;13.622;2023-04-15T06:32:31;14.70;78.80
38325;DHT22;24126;52.672;13.622;2023-04-15T06:34:59;14.70;78.70
38325;DHT22;24126;52.672;13.622;2023-04-15T06:37:28;14.70;78.40
38325;DHT22;24126;52.672;13.622;2023-04-15T06:39:57;14.60;78.80
38325;DHT22;24126;52.672;13.622;2023-04-15T06:42:26;14.60;78.90
38325;DHT22;24126;52.672;13.622;2023-04-15T06:44:54;14.70;78.80
38325;DHT22;24126;52.672;13.622;2023-04-15T06:47:22;14.80;78.40
38325;DHT22;24126;52.672;13.622;2023-04-15T06:49:51;14.80;78.40
38325;DHT22;24126;52.672;13.622;2023-04-15T06:52:19;14.90;78.30
38325;DHT22;24126;52.672;13.622;2023-04-15T06:54:48;14.90;77.90
38325;DHT22;24126;52.672;13.622;2023-04-15T06:57:16;14.90;77.80
38325;DHT22;24126;52.672;13.622;2023-04-15T06:59:44;14.80;77.90
38325;DHT22;24126;52.672;13.622;2023-04-15T07:02:13;14.80;77.90
38325;DHT22;24126;52.672;13.622;2023-04-15T07:04:41;14.80;77.80
38325;DHT22;24126;52.672;13.622;2023-04-15T07:07:10;14.70;78.00
38325;DHT22;24126;52.672;13.622;2023-04-15T07:09:38;14.70;78.20
38325;DHT22;24126;52.672;13.622;2023-04-15T07:12:06;14.70;78.10
38325;DHT22;24126;52.672;13.622;2023-04-15T07:14:35;14.70;78.00
38325;DHT22;24126;52.672;13.622;2023-04-15T07:17:03;14.70;78.10
38325;DHT22;24126;52.672;13.622;2023-04-15T07:19:31;14.70;78.20
38325;DHT22;24126;52.672;13.622;2023-04-15T07:22:00;14.70;78.20
38325;DHT22;24126;52.672;13.622;2023-04-15T07:24:28;14.70;78.30
38325;DHT22;24126;52.672;13.622;2023-04-15T07:26:57;14.70;78.30
38325;DHT22;24126;52.672;13.622;2023-04-15T07:29:25;14.70;78.20
38325;DHT22;24126;52.672;13.622;2023-04-15T07:31:54;14.80;77.80
38325;DHT22;24126;52.672;13.622;2023-04-15T07:34:23;14.80;78.10
38325;DHT22;24126;52.672;13.622;2023-04-15T07:36:51;14.70;77.90
38325;DHT22;24126;52.672;13.622;2023-04-15T07:39:20;14.70;78.20
38325;DHT22;24126;52.672;13.622;2023-04-15T07:41:48;14.70;78.50
38325;DHT22;24126;52.672;13.622;2023-04-15T07:44:17;14.70;78.40
38325;DHT22;24126;52.672;13.622;2023-04-15T07:46:45;14.70;78.10
38325;DHT22;24126;52.672;13.622;2023-04-15T07:49:13;14.70;78.80
38325;DHT22;24126;52.672;13.622;2023-04-15T07:51:42;14.70;78.20
38325;DHT22;24126;52.672;13.622;2023-04-15T07:54:10;14.70;78.40
38325;DHT22;24126;52.672;13.622;2023-04-15T07:56:38;14.70;78.40
38325;DHT22;24126;52.672;13.622;2023-04-15T07:59:07;14.70;78.30
38325;DHT22;24126;52.672;13.622;2023-04-15T08:01:36;14.70;78.60
38325;DHT22;24126;52.672;13.622;2023-04-15T08:04:05;14.70;78.80
38325;DHT22;24126;52.672;13.622;2023-04-15T08:06:34;14.80;78.20
38325;DHT22;24126;52.672;13.622;2023-04-15T08:09:02;14.80;78.50
38325;DHT22;24126;52.672;13.622;2023-04-15T08:11:30;14.80;78.20
38325;DHT22;24126;52.672;13.622;2023-04-15T08:13:59;14.80;78.00
38325;DHT22;24126;52.672;13.622;2023-04-15T08:16:27;14.80;78.00
38325;DHT22;24126;52.672;13.622;2023-04-15T08:18:56;14.90;78.10
38325;DHT22;24126;52.672;13.622;2023-04-15T08:21:24;15.00;77.80
38325;DHT22;24126;52.672;13.622;2023-04-15T08:23:53;15.00;77.80
38325;DHT22;24126;52.672;13.622;2023-04-15T08:26:22;15.00;77.50
38325;DHT22;24126;52.672;13.622;2023-04-15T08:28:50;15.10;77.50
38325;DHT22;24126;52.672;13.622;2023-04-15T08:31:19;15.10;77.30
38325;DHT22;24126;52.672;13.622;2023-04-15T08:33:48;15.10;77.50
38325;DHT22;24126;52.672;13.622;2023-04-15T08:36:18;15.10;77.50
38325;DHT22;24126;52.672;13.622;2023-04-15T08:38:46;15.10;77.30
38325;DHT22;24126;52.672;13.622;2023-04-15T08:41:22;15.10;77.70
38325;DHT22;24126;52.672;13.622;2023-04-15T08:43:52;15.10;77.80
38325;DHT22;24126;52.672;13.622;2023-04-15T08:46:21;15.20;77.40
38325;DHT22;24126;52.672;13.622;2023-04-15T08:48:50;15.20;77.20
38325;DHT22;24126;52.672;13.622;2023-04-15T08:51:19;15.30;77.10
38325;DHT22;24126;52.672;13.622;2023-04-15T08:53:48;15.30;77.00
38325;DHT22;24126;52.672;13.622;2023-04-15T08:56:17;15.30;77.10
38325;DHT22;24126;52.672;13.622;2023-04-15T08:58:46;15.30;77.20
38325;DHT22;24126;52.672;13.622;2023-04-15T09:01:14;15.40;76.80
38325;DHT22;24126;52.672;13.622;2023-04-15T09:03:43;15.40;76.40
38325;DHT22;24126;52.672;13.622;2023-04-15T09:06:12;15.30;76.40
38325;DHT22;24126;52.672;13.622;2023-04-15T09:08:41;15.20;76.70
38325;DHT22;24126;52.672;13.622;2023-04-15T09:11:09;15.20;77.00
38325;DHT22;24126;52.672;13.622;2023-04-15T09:13:38;15.20;77.00
38325;DHT22;24126;52.672;13.622;2023-04-15T09:16:07;15.20;76.90
38325;DHT22;24126;52.672;13.622;2023-04-15T09:18:35;15.20;77.10
38325;DHT22;24126;52.672;13.622;2023-04-15T09:21:04;15.20;77.30
38325;DHT22;24126;52.672;13.622;2023-04-15T09:23:35;15.30;77.30
38325;DHT22;24126;52.672;13.622;2023-04-15T09:26:03;15.40;77.00
38325;DHT22;24126;52.672;13.622;2023-04-15T09:28:32;15.40;76.70
38325;DHT22;24126;52.672;13.622;2023-04-15T09:31:01;15.50;76.80
38325;DHT22;24126;52.672;13.622;2023-04-15T09:33:30;15.50;76.60
38325;DHT22;24126;52.672;13.622;2023-04-15T09:36:02;15.50;76.50
38325;DHT22;24126;52.672;13.622;2023-04-15T09:38:31;15.60;76.60
38325;DHT22;24126;52.672;13.622;2023-04-15T09:41:00;15.50;76.30
38325;DHT22;24126;52.672;13.622;2023-04-15T09:43:38;15.50;76.30
38325;DHT22;24126;52.672;13.622;2023-04-15T09:46:06;15.40;76.40
38325;DHT22;24126;52.672;13.622;2023-04-15T09:48:35;15.30;76.80
38325;DHT22;24126;52.672;13.622;2023-04-15T09:51:03;15.30;77.20
38325;DHT22;24126;52.672;13.622;2023-04-15T09:53:33;15.30;77.20
38325;DHT22;24126;52.672;13.622;2023-04-15T09:56:02;15.40;77.20
38325;DHT22;24126;52.672;13.622;2023-04-15T09:58:31;15.40;76.90
38325;DHT22;24126;52.672;13.622;2023-04-15T10:01:04;15.40;77.10
38325;DHT22;24126;52.672;13.622;2023-04-15T10:03:34;15.40;77.10
38325;DHT22;24126;52.672;13.622;2023-04-15T10:06:02;15.50;77.30
38325;DHT22;24126;52.672;13.622;2023-04-15T10:08:32;15.40;77.00
38325;DHT22;24126;52.672;13.622;2023-04-15T10:11:01;15.50;77.40
38325;DHT22;24126;52.672;13.622;2023-04-15T10:13:30;15.50;77.20
38325;DHT22;24126;52.672;13.622;2023-04-15T10:16:11;15.60;77.20
38325;DHT22;24126;52.672;13.622;2023-04-15T10:18:41;15.70;77.20
38325;DHT22;24126;52.672;13.622;2023-04-15T10:21:10;15.60;76.90
38325;DHT22;24126;52.672;13.622;2023-04-15T10:23:40;15.70;76.80
38325;DHT22;24126;52.672;13.622;2023-04-15T10:26:08;15.70;77.00
38325;DHT22;24126;52.672;13.622;2023-04-15T10:28:38;15.70;77.20
38325;DHT22;24126;52.672;13.622;2023-04-15T10:31:06;15.70;77.30
38325;DHT22;24126;52.672;13.622;2023-04-15T10:33:35;15.70;76.90
38325;DHT22;24126;52.672;13.622;2023-04-15T10:36:05;15.60;77.20
38325;DHT22;24126;52.672;13.622;2023-04-15T10:38:34;15.70;77.30
38325;DHT22;24126;52.672;13.622;2023-04-15T10:43:51;15.70;77.40
38325;DHT22;24126;52.672;13.622;2023-04-15T10:46:39;15.70;77.30
38325;DHT22;24126;52.672;13.622;2023-04-15T10:49:08;15.70;77.50
38325;DHT22;24126;52.672;13.622;2023-04-15T10:51:41;15.60;78.10
38325;DHT22;24126;52.672;13.622;2023-04-15T10:54:13;15.60;78.20
38325;DHT22;24126;52.672;13.622;2023-04-15T10:56:45;15.70;78.30
38325;DHT22;24126;52.672;13.622;2023-04-15T10:59:18;15.80;78.00
38325;DHT22;24126;52.672;13.622;2023-04-15T11:02:05;15.80;78.00
38325;DHT22;24126;52.672;13.622;2023-04-15T11:04:53;15.80;77.50
38325;DHT22;24126;52.672;13.622;2023-04-15T11:07:38;15.70;78.00
38325;DHT22;24126;52.672;13.622;2023-04-15T11:12:42;15.70;78.60
38325;DHT22;24126;52.672;13.622;2023-04-15T11:15:27;15.70;78.60
38325;DHT22;24126;52.672;13.622;2023-04-15T11:17:56;15.80;78.50
38325;DHT22;24126;52.672;13.622;2023-04-15T11:20:25;15.80;77.90
38325;DHT22;24126;52.672;13.622;2023-04-15T11:22:53;15.80;78.30
38325;DHT22;24126;52.672;13.622;2023-04-15T11:27:51;15.70;78.50
38325;DHT22;24126;52.672;13.622;2023-04-15T11:30:21;15.60;78.50
38325;DHT22;24126;52.672;13.622;2023-04-15T11:32:50;15.60;78.90
38325;DHT22;24126;52.672;13.622;2023-04-15T11:35:19;15.60;78.70
38325;DHT22;24126;52.672;13.622;2023-04-15T11:37:48;15.60;78.70
38325;DHT22;24126;52.672;13.622;2023-04-15T11:40:21;15.60;78.60
38325;DHT22;24126;52.672;13.622;2023-04-15T11:43:05;15.60;78.40
38325;DHT22;24126;52.672;13.622;2023-04-15T11:45:34;15.60;78.50
38325;DHT22;24126;52.672;13.622;2023-04-15T11:48:10;15.60;78.70
38325;DHT22;24126;52.672;13.622;2023-04-15T11:50:39;15.60;78.80
38325;DHT22;24126;52.672;13.622;2023-04-15T11:53:07;15.50;78.90
38325;DHT22;24126;52.672;13.622;2023-04-15T11:55:41;15.50;79.10
38325;DHT22;24126;52.672;13.622;2023-04-15T12:00:36;15.60;79.10
38325;DHT22;24126;52.672;13.622;2023-04-15T12:11:19;15.70;79.50
38325;DHT22;24126;52.672;13.622;2023-04-15T12:13:47;15.70;79.50
38325;DHT22;24126;52.672;13.622;2023-04-15T12:16:18;15.70;79.40
38325;DHT22;24126;52.672;13.622;2023-04-15T12:18:45;15.70;79.60
38325;DHT22;24126;52.672;13.622;2023-04-15T12:21:13;15.80;79.70
38325;DHT22;24126;52.672;13.622;2023-04-15T12:23:50;15.80;79.70
38325;DHT22;24126;52.672;13.622;2023-04-15T12:26:17;15.90;79.60
38325;DHT22;24126;52.672;13.622;2023-04-15T12:28:44;15.90;79.50
38325;DHT22;24126;52.672;13.622;2023-04-15T12:31:11;15.90;79.40
38325;DHT22;24126;52.672;13.622;2023-04-15T12:33:40;15.90;79.50
38325;DHT22;24126;52.672;13.622;2023-04-15T12:36:08;15.90;79.30
38325;DHT22;24126;52.672;13.622;2023-04-15T12:38:35;15.90;79.70
38325;DHT22;24126;52.672;13.622;2023-04-15T12:41:02;15.90;79.70
38325;DHT22;24126;52.672;13.622;2023-04-15T12:43:29;16.00;79.70
38325;DHT22;24126;52.672;13.622;2023-04-15T12:45:56;16.00;79.50
38325;DHT22;24126;52.672;13.622;2023-04-15T12:48:23;16.00;79.50
38325;DHT22;24126;52.672;13.622;2023-04-15T12:50:50;16.00;79.50
38325;DHT22;24126;52.672;13.622;2023-04-15T12:53:19;16.00;79.60
38325;DHT22;24126;52.672;13.622;2023-04-15T12:55:46;16.00;79.70
38325;DHT22;24126;52.672;13.622;2023-04-15T12:58:13;16.10;79.60
38325;DHT22;24126;52.672;13.622;2023-04-15T13:00:40;16.10;79.60
38325;DHT22;24126;52.672;13.622;2023-04-15T13:03:07;16.10;79.70
38325;DHT22;24126;52.672;13.622;2023-04-15T13:05:35;16.00;79.40
38325;DHT22;24126;52.672;13.622;2023-04-15T13:08:04;16.10;79.40
38325;DHT22;24126;52.672;13.622;2023-04-15T13:10:31;16.00;79.30
38325;DHT22;24126;52.672;13.622;2023-04-15T13:12:58;16.00;79.60
38325;DHT22;24126;52.672;13.622;2023-04-15T13:15:26;16.00;79.70
38325;DHT22;24126;52.672;13.622;2023-04-15T13:17:53;16.00;79.90
38325;DHT22;24126;52.672;13.622;2023-04-15T13:20:21;16.00;79.80
38325;DHT22;24126;52.672;13.622;2023-04-15T13:22:48;16.00;79.70
38325;DHT22;24126;52.672;13.622;2023-04-15T13:25:15;16.00;79.90
38325;DHT22;24126;52.672;13.622;2023-04-15T13:27:42;16.00;79.90
38325;DHT22;24126;52.672;13.622;2023-04-15T13:30:09;15.90;80.00
38325;DHT22;24126;52.672;13.622;2023-04-15T13:32:36;15.90;80.20
38325;DHT22;24126;52.672;13.622;2023-04-15T13:35:03;15.90;79.90
38325;DHT22;24126;52.672;13.622;2023-04-15T13:37:30;15.90;80.00
38325;DHT22;24126;52.672;13.622;2023-04-15T13:39:58;15.90;80.00
38325;DHT22;24126;52.672;13.622;2023-04-15T13:42:25;16.00;80.00
38325;DHT22;24126;52.672;13.622;2023-04-15T13:44:53;16.00;80.00
38325;DHT22;24126;52.672;13.622;2023-04-15T13:47:20;16.00;79.80
38325;DHT22;24126;52.672;13.622;2023-04-15T13:49:47;16.00;79.90
38325;DHT22;24126;52.672;13.622;2023-04-15T13:52:14;16.00;79.90
38325;DHT22;24126;52.672;13.622;2023-04-15T13:54:41;15.90;79.80
38325;DHT22;24126;52.672;13.622;2023-04-15T13:57:08;15.90;80.30
38325;DHT22;24126;52.672;13.622;2023-04-15T13:59:35;15.90;80.30
38325;DHT22;24126;52.672;13.622;2023-04-15T14:02:02;15.80;80.50
38325;DHT22;24126;52.672;13.622;2023-04-15T14:04:30;15.80;80.50
38325;DHT22;24126;52.672;13.622;2023-04-15T14:06:57;15.90;80.40
38325;DHT22;24126;52.672;13.622;2023-04-15T14:09:24;15.90;80.30
38325;DHT22;24126;52.672;13.622;2023-04-15T14:11:51;15.90;80.20
38325;DHT22;24126;52.672;13.622;2023-04-15T14:14:18;15.90;80.10
38325;DHT22;24126;52.672;13.622;2023-04-15T14:16:46;15.90;80.10
38325;DHT22;24126;52.672;13.622;2023-04-15T14:19:13;15.90;79.90
38325;DHT22;24126;52.672;13.622;2023-04-15T14:21:40;15.90;80.20
38325;DHT22;24126;52.672;13.622;2023-04-15T14:24:07;16.00;80.30
38325;DHT22;24126;52.672;13.622;2023-04-15T14:26:34;16.00;80.30
38325;DHT22;24126;52.672;13.622;2023-04-15T14:29:01;16.00;80.10
38325;DHT22;24126;52.672;13.622;2023-04-15T14:31:28;16.00;79.90
38325;DHT22;24126;52.672;13.622;2023-04-15T14:33:55;16.00;80.10
38325;DHT22;24126;52.672;13.622;2023-04-15T14:36:23;16.00;80.20
38325;DHT22;24126;52.672;13.622;2023-04-15T14:38:50;16.00;80.20
38325;DHT22;24126;52.672;13.622;2023-04-15T14:41:17;16.00;80.20
38325;DHT22;24126;52.672;13.622;2023-04-15T14:43:44;16.00;80.30
38325;DHT22;24126;52.672;13.622;2023-04-15T14:46:11;16.00;80.30
38325;DHT22;24126;52.672;13.622;2023-04-15T14:48:39;15.90;80.40
38325;DHT22;24126;52.672;13.622;2023-04-15T14:51:06;16.00;80.50
38325;DHT22;24126;52.672;13.622;2023-04-15T14:53:33;16.00;80.50
38325;DHT22;24126;52.672;13.622;2023-04-15T14:56:00;16.00;80.30
38325;DHT22;24126;52.672;13.622;2023-04-15T14:58:28;16.00;80.30
38325;DHT22;24126;52.672;13.622;2023-04-15T15:00:55;16.00;80.30
38325;DHT22;24126;52.672;13.622;2023-04-15T15:03:22;16.00;80.30
38325;DHT22;24126;52.672;13.622;2023-04-15T15:05:49;15.90;80.20
38325;DHT22;24126;52.672;13.622;2023-04-15T15:08:16;16.00;80.20
38325;DHT22;24126;52.672;13.622;2023-04-15T15:10:43;16.00;80.40
38325;DHT22;24126;52.672;13.622;2023-04-15T15:13:10;15.90;80.40
38325;DHT22;24126;52.672;13.622;2023-04-15T15:15:37;15.90;80.40
38325;DHT22;24126;52.672;13.622;2023-04-15T15:18:04;15.90;80.40
38325;DHT22;24126;52.672;13.622;2023-04-15T15:20:31;15.90;80.30
38325;DHT22;24126;52.672;13.622;2023-04-15T15:22:59;15.90;80.40
38325;DHT22;24126;52.672;13.622;2023-04-15T15:25:26;15.90;80.40
38325;DHT22;24126;52.672;13.622;2023-04-15T15:27:53;15.90;80.50
38325;DHT22;24126;52.672;13.622;2023-04-15T15:30:20;15.90;80.40
38325;DHT22;24126;52.672;13.622;2023-04-15T15:32:47;15.80;80.60
38325;DHT22;24126;52.672;13.622;2023-04-15T15:35:15;15.80;80.70
38325;DHT22;24126;52.672;13.622;2023-04-15T15:37:42;15.80;80.80
38325;DHT22;24126;52.672;13.622;2023-04-15T15:40:09;15.80;80.90
38325;DHT22;24126;52.672;13.622;2023-04-15T15:42:36;15.70;80.90